Terminal Aerodrome Forecast
Issued by NWS Central Illinois

Home | Current Version | Previous Version | Text Only | Print | Product List | Glossary On
Versions: 1 2 3 4 5 6 7 8 9 10 11 12 13 14 15 16 17 18 19 20 21 22 23 24 25 26 27 28 29 30 31 32 33 34 35 36 37 38
052
FTUS43 KILX 211724
TAFPIA
TAF
KPIA 211724Z 2118/2218 VRB03KT P6SM SCT012 BKN050
      TEMPO 2118/2120 BKN012
     FM212000 VRB03KT P6SM SCT070
     FM220800 21005KT 1 1/2SM BR FEW070
     FM221500 21006KT P6SM FEW040=

USA.gov is the U.S. government's official web portal to all federal, state and local government web resources and services.